createdAt,value
2023-01-11T00:00:12.675Z,0.90
2023-01-11T00:02:14.771Z,0.60
2023-01-11T00:04:17.074Z,0.52
2023-01-11T00:06:19.225Z,0.60
2023-01-11T00:08:22.366Z,1.20
2023-01-11T00:10:24.612Z,0.95
2023-01-11T00:12:26.722Z,0.93
2023-01-11T00:14:28.843Z,1.27
2023-01-11T00:16:30.843Z,0.75
2023-01-11T00:18:32.808Z,1.08
2023-01-11T00:20:35.237Z,0.57
2023-01-11T00:22:37.941Z,1.20
2023-01-11T00:24:39.836Z,0.80
2023-01-11T00:26:41.915Z,1.25
2023-01-11T00:28:44.006Z,1.20
2023-01-11T00:30:49.272Z,1.45
2023-01-11T00:32:57.767Z,0.68
2023-01-11T00:34:59.833Z,1.77
2023-01-11T00:37:02.115Z,1.08
2023-01-11T00:39:04.481Z,1.10
2023-01-11T00:41:17.393Z,0.85
2023-01-11T00:43:28.324Z,1.17
2023-01-11T00:45:40.472Z,0.50
2023-01-11T00:47:52.345Z,0.85
2023-01-11T00:49:54.409Z,1.15
2023-01-11T00:51:56.634Z,0.98
2023-01-11T00:53:58.730Z,0.73
2023-01-11T00:56:00.815Z,0.77
2023-01-11T00:58:03.217Z,0.65
2023-01-11T01:00:06.256Z,1.48
2023-01-11T01:02:09.898Z,1.23
2023-01-11T01:04:11.945Z,0.60
2023-01-11T01:06:13.932Z,0.90
2023-01-11T01:08:16.332Z,1.40
2023-01-11T01:10:18.619Z,0.88
2023-01-11T01:12:30.305Z,0.60
2023-01-11T01:14:33.702Z,1.00
2023-01-11T01:16:37.136Z,1.00
2023-01-11T01:18:39.194Z,1.05
2023-01-11T01:20:41.598Z,0.65
2023-01-11T01:22:43.533Z,1.00
2023-01-11T01:24:45.517Z,1.80
2023-01-11T01:26:47.527Z,1.30
2023-01-11T01:28:50.721Z,0.80
2023-01-11T01:30:52.907Z,0.85
2023-01-11T01:32:55.078Z,1.17
2023-01-11T01:34:57.211Z,1.05
2023-01-11T01:36:59.243Z,0.80
2023-01-11T01:39:01.771Z,1.00
2023-01-11T01:41:04.999Z,0.88
2023-01-11T01:43:11.765Z,0.73
2023-01-11T01:45:24.326Z,1.08
2023-01-11T01:47:35.044Z,0.98
2023-01-11T01:51:40.109Z,1.00
2023-01-11T01:53:47.037Z,2.00
2023-01-11T01:55:53.646Z,1.52
2023-01-11T01:57:58.082Z,0.80
2023-01-11T02:00:05.475Z,1.77
2023-01-11T02:02:07.525Z,1.52
2023-01-11T02:04:14.547Z,2.33
2023-01-11T02:06:16.964Z,1.20
2023-01-11T02:08:30.341Z,1.15
2023-01-11T02:10:33.142Z,1.42
2023-01-11T02:12:41.456Z,1.00
2023-01-11T02:14:45.156Z,1.55
2023-01-11T02:16:47.126Z,2.28
2023-01-11T02:18:49.112Z,0.85
2023-01-11T02:21:10.562Z,0.80
2023-01-11T02:23:23.009Z,1.45
2023-01-11T02:25:26.591Z,1.60
2023-01-11T02:27:34.943Z,1.95
2023-01-11T02:29:44.011Z,1.23
2023-01-11T02:32:05.604Z,1.42
2023-01-11T02:34:19.876Z,1.40
2023-01-11T02:36:30.792Z,1.20
2023-01-11T02:38:41.947Z,1.45
2023-01-11T02:40:55.377Z,1.08
2023-01-11T02:43:16.353Z,0.80
2023-01-11T02:45:33.465Z,1.55
2023-01-11T02:47:40.496Z,1.25
2023-01-11T02:49:52.796Z,1.30
2023-01-11T02:52:01.126Z,2.20
2023-01-11T02:54:09.294Z,2.28
2023-01-11T02:56:16.966Z,1.10
2023-01-11T02:58:22.118Z,1.17
2023-01-11T03:00:25.608Z,0.95
2023-01-11T03:02:27.899Z,1.83
2023-01-11T03:04:36.475Z,2.15
2023-01-11T03:06:38.479Z,1.38
2023-01-11T03:08:51.441Z,0.98
2023-01-11T03:10:56.841Z,1.15
2023-01-11T03:13:09.052Z,2.35
2023-01-11T03:15:11.221Z,1.33
2023-01-11T03:17:25.800Z,1.35
2023-01-11T03:19:29.297Z,0.93
2023-01-11T03:21:43.210Z,1.05
2023-01-11T03:23:55.444Z,0.75
2023-01-11T03:26:16.508Z,1.05
2023-01-11T03:28:37.411Z,1.30
2023-01-11T03:32:55.901Z,1.55
2023-01-11T03:35:13.802Z,1.75
2023-01-11T03:37:25.743Z,1.52
2023-01-11T03:39:37.921Z,1.20
2023-01-11T03:41:42.157Z,0.98
2023-01-11T03:43:47.013Z,0.70
2023-01-11T03:45:54.146Z,1.00
2023-01-11T03:48:00.008Z,0.80
2023-01-11T03:50:06.964Z,1.77
2023-01-11T03:52:12.587Z,1.35
2023-01-11T03:54:21.472Z,1.63
2023-01-11T03:56:41.352Z,1.40
2023-01-11T03:58:44.182Z,1.25
2023-01-11T04:00:46.379Z,1.48
2023-01-11T04:02:49.811Z,1.90
2023-01-11T04:04:52.099Z,1.42
2023-01-11T04:06:54.412Z,1.10
2023-01-11T04:08:56.231Z,1.48
2023-01-11T04:10:58.241Z,1.40
2023-01-11T04:12:59.982Z,1.48
2023-01-11T04:15:03.376Z,1.90
2023-01-11T04:17:05.628Z,1.73
2023-01-11T04:19:07.478Z,1.20
2023-01-11T04:21:09.305Z,1.55
2023-01-11T04:23:11.239Z,1.58
2023-01-11T04:25:13.058Z,1.55
2023-01-11T04:27:15.136Z,1.30
2023-01-11T04:29:16.955Z,1.33
2023-01-11T04:31:18.803Z,1.48
2023-01-11T04:33:20.632Z,1.30
2023-01-11T04:35:22.574Z,2.13
2023-01-11T04:37:24.438Z,1.35
2023-01-11T04:39:26.273Z,1.08
2023-01-11T04:41:37.524Z,1.98
2023-01-11T04:43:39.372Z,1.92
2023-01-11T04:45:41.208Z,1.38
2023-01-11T04:47:43.172Z,1.35
2023-01-11T04:49:45.621Z,1.15
2023-01-11T04:51:47.398Z,1.95
2023-01-11T04:53:49.664Z,2.92
2023-01-11T04:55:53.655Z,1.70
2023-01-11T04:57:55.565Z,1.63
2023-01-11T04:59:57.410Z,1.92
2023-01-11T05:01:59.236Z,1.52
2023-01-11T05:04:01.132Z,1.75
2023-01-11T05:06:03.582Z,1.65
2023-01-11T05:08:05.492Z,1.38
2023-01-11T05:10:07.889Z,1.30
2023-01-11T05:12:09.729Z,1.48
2023-01-11T05:14:11.849Z,1.55
2023-01-11T05:16:25.524Z,1.50
2023-01-11T05:18:27.410Z,1.20
2023-01-11T05:20:29.237Z,1.77
2023-01-11T05:22:31.008Z,1.40
2023-01-11T05:24:32.847Z,1.40
2023-01-11T05:26:37.267Z,1.73
2023-01-11T05:28:39.407Z,1.30
2023-01-11T05:30:41.187Z,2.05
2023-01-11T05:32:43.033Z,1.40
2023-01-11T05:34:44.838Z,1.40
2023-01-11T05:36:46.982Z,1.73
2023-01-11T05:38:50.757Z,1.67
2023-01-11T05:40:58.146Z,1.58
2023-01-11T05:42:59.977Z,2.28
2023-01-11T05:45:11.416Z,1.48
2023-01-11T05:47:13.223Z,1.58
2023-01-11T05:49:15.446Z,2.40
2023-01-11T05:51:17.567Z,1.23
2023-01-11T05:53:20.144Z,1.85
2023-01-11T05:55:22.055Z,1.88
2023-01-11T05:57:24.037Z,1.23
2023-01-11T05:59:27.054Z,1.77
2023-01-11T06:01:28.861Z,2.00
2023-01-11T06:03:30.662Z,1.23
2023-01-11T06:05:34.690Z,1.83
2023-01-11T06:07:36.500Z,1.50
2023-01-11T06:09:38.399Z,1.60
2023-01-11T06:11:40.511Z,1.35
2023-01-11T06:13:42.790Z,2.65
2023-01-11T06:15:44.642Z,2.72
2023-01-11T06:17:46.444Z,1.60
2023-01-11T06:19:48.613Z,2.15
2023-01-11T06:21:50.664Z,1.73
2023-01-11T06:23:53.674Z,1.80
2023-01-11T06:25:56.420Z,1.52
2023-01-11T06:28:00.017Z,1.58
2023-01-11T06:30:02.778Z,1.90
2023-01-11T06:32:07.824Z,2.58
2023-01-11T06:34:10.252Z,1.65
2023-01-11T06:36:13.704Z,1.73
2023-01-11T06:38:17.527Z,2.67
2023-01-11T06:40:19.671Z,1.17
2023-01-11T06:42:23.372Z,1.42
2023-01-11T06:44:26.139Z,1.00
2023-01-11T06:46:29.184Z,1.70
2023-01-11T06:48:31.880Z,1.98
2023-01-11T06:50:33.871Z,1.60
2023-01-11T06:52:35.856Z,1.50
2023-01-11T06:54:37.845Z,1.70
2023-01-11T06:56:39.828Z,1.77
2023-01-11T06:58:42.210Z,2.78
2023-01-11T07:00:44.303Z,2.13
2023-01-11T07:02:47.534Z,1.45
2023-01-11T07:04:49.531Z,2.47
2023-01-11T07:06:54.896Z,2.60
2023-01-11T07:08:56.968Z,1.67
2023-01-11T07:10:59.156Z,2.17
2023-01-11T07:13:01.286Z,1.23
2023-01-11T07:15:07.542Z,1.50
2023-01-11T07:17:09.826Z,1.67
2023-01-11T07:19:12.079Z,1.20
2023-01-11T07:21:14.107Z,1.20
2023-01-11T07:23:16.116Z,1.10
2023-01-11T07:25:26.239Z,1.95
2023-01-11T07:27:28.088Z,1.33
2023-01-11T07:29:32.645Z,2.03
2023-01-11T07:31:52.192Z,1.65
2023-01-11T07:33:55.317Z,2.28
2023-01-11T07:35:58.838Z,1.13
2023-01-11T07:38:14.687Z,1.50
2023-01-11T07:40:23.567Z,1.50
2023-01-11T07:42:36.024Z,1.75
2023-01-11T07:44:37.875Z,1.75
2023-01-11T07:46:39.619Z,1.40
2023-01-11T07:48:42.453Z,2.10
2023-01-11T07:50:45.257Z,1.13
2023-01-11T07:52:58.395Z,2.15
2023-01-11T07:55:02.864Z,1.30
2023-01-11T07:57:18.026Z,2.67
2023-01-11T07:59:22.928Z,3.05
2023-01-11T08:01:26.843Z,2.00
2023-01-11T08:03:32.140Z,1.80
2023-01-11T08:06:01.491Z,1.20
2023-01-11T08:08:09.506Z,1.63
2023-01-11T08:10:12.266Z,1.83
2023-01-11T08:12:38.942Z,1.35
2023-01-11T08:14:43.401Z,1.20
2023-01-11T08:16:48.607Z,2.08
2023-01-11T08:18:56.718Z,1.10
2023-01-11T08:21:06.430Z,2.13
2023-01-11T08:23:16.158Z,1.35
2023-01-11T08:25:18.108Z,1.55
2023-01-11T08:27:20.553Z,1.50
2023-01-11T08:29:26.849Z,1.77
2023-01-11T08:31:34.542Z,1.13
2023-01-11T08:33:36.319Z,1.35
2023-01-11T08:35:47.068Z,1.73
2023-01-11T08:38:03.630Z,1.48
2023-01-11T08:40:37.502Z,1.48
2023-01-11T08:42:55.939Z,0.65
2023-01-11T08:44:58.978Z,1.08
2023-01-11T08:47:01.594Z,1.25
2023-01-11T08:49:05.725Z,1.05
2023-01-11T08:51:07.818Z,1.50
2023-01-11T08:53:10.951Z,1.75
2023-01-11T08:55:14.176Z,0.95
2023-01-11T08:57:27.713Z,2.70
2023-01-11T08:59:31.340Z,1.42
2023-01-11T09:01:48.802Z,1.60
2023-01-11T09:03:54.820Z,0.90
2023-01-11T09:05:57.084Z,2.55
2023-01-11T09:07:59.896Z,1.70
2023-01-11T09:10:04.428Z,1.38
2023-01-11T09:12:06.566Z,1.63
2023-01-11T09:14:08.407Z,1.77
2023-01-11T09:16:10.178Z,1.27
2023-01-11T09:18:18.440Z,2.85
2023-01-11T09:20:22.449Z,1.70
2023-01-11T09:22:26.256Z,1.80
2023-01-11T09:24:29.167Z,1.30
2023-01-11T09:26:34.554Z,1.55
2023-01-11T09:28:43.315Z,1.85
2023-01-11T09:30:44.962Z,2.42
2023-01-11T09:33:03.583Z,1.75
2023-01-11T09:35:06.364Z,2.45
2023-01-11T09:37:16.275Z,1.83
2023-01-11T09:39:24.614Z,2.08
2023-01-11T09:41:36.536Z,2.30
2023-01-11T09:44:04.721Z,1.60
2023-01-11T09:46:29.514Z,2.17
2023-01-11T09:48:43.499Z,1.27
2023-01-11T09:50:48.711Z,1.33
2023-01-11T09:53:09.910Z,1.35
2023-01-11T09:55:25.243Z,1.30
2023-01-11T09:57:50.303Z,1.35
2023-01-11T10:00:20.251Z,1.83
2023-01-11T10:02:50.005Z,0.88
2023-01-11T10:05:33.914Z,1.60
2023-01-11T10:18:34.253Z,2.25
2023-01-11T10:21:45.185Z,1.88
2023-01-11T10:24:13.155Z,1.17
2023-01-11T10:26:32.470Z,1.40
2023-01-11T10:29:37.309Z,1.33
2023-01-11T10:31:56.640Z,1.73
2023-01-11T10:34:23.264Z,1.90
2023-01-11T10:37:13.630Z,1.25
2023-01-11T10:39:47.907Z,1.70
2023-01-11T10:42:24.218Z,1.08
2023-01-11T10:44:57.418Z,1.27
2023-01-11T10:47:06.899Z,1.83
2023-01-11T10:51:49.425Z,1.20
2023-01-11T10:53:57.419Z,1.17
2023-01-11T10:56:16.357Z,2.42
2023-01-11T10:58:46.272Z,1.50
2023-01-11T11:01:46.006Z,0.82
2023-01-11T11:06:50.561Z,1.55
2023-01-11T11:11:36.050Z,0.90
2023-01-11T11:14:14.602Z,1.33
2023-01-11T11:16:30.102Z,1.10
2023-01-11T11:18:32.409Z,0.95
2023-01-11T11:20:35.451Z,2.00
2023-01-11T11:22:37.484Z,1.45
2023-01-11T11:24:48.248Z,0.90
2023-01-11T11:27:00.287Z,1.08
2023-01-11T11:29:06.873Z,1.52
2023-01-11T11:31:09.930Z,0.82
2023-01-11T11:33:23.458Z,1.45
2023-01-11T11:35:38.789Z,1.02
2023-01-11T11:37:44.627Z,1.15
2023-01-11T11:39:49.373Z,1.67
2023-01-11T11:41:54.138Z,0.70
2023-01-11T11:44:15.373Z,1.27
2023-01-11T11:46:23.412Z,0.95
2023-01-11T11:48:27.715Z,1.00
2023-01-11T11:50:44.846Z,0.65
2023-01-11T11:52:52.365Z,0.85
2023-01-11T11:54:58.383Z,0.85
2023-01-11T11:57:14.918Z,1.10
2023-01-11T11:59:21.206Z,0.70
2023-01-11T12:01:35.101Z,0.77
2023-01-11T12:03:37.344Z,0.55
2023-01-11T12:05:57.774Z,1.17
2023-01-11T12:08:02.926Z,0.85
2023-01-11T12:10:12.312Z,0.70
2023-01-11T12:12:17.603Z,0.60
2023-01-11T12:14:25.986Z,1.48
2023-01-11T12:16:34.970Z,0.65
2023-01-11T12:18:41.614Z,1.23
2023-01-11T12:20:45.372Z,1.90
2023-01-11T12:22:48.675Z,0.90
2023-01-11T12:25:09.609Z,0.63
2023-01-11T12:27:32.798Z,1.52
2023-01-11T12:29:46.854Z,1.02
2023-01-11T12:32:03.531Z,1.20
2023-01-11T12:34:18.033Z,1.52
2023-01-11T12:36:29.924Z,0.63
2023-01-11T12:38:54.053Z,1.48
2023-01-11T12:41:02.054Z,0.98
2023-01-11T12:43:14.630Z,1.20
2023-01-11T12:45:31.331Z,1.52
2023-01-11T12:47:52.814Z,0.95
2023-01-11T12:50:13.695Z,0.82
2023-01-11T12:54:54.057Z,1.00
2023-01-11T12:57:15.724Z,0.70
2023-01-11T12:59:30.414Z,0.90
2023-01-11T13:01:49.694Z,1.30
2023-01-11T13:03:55.515Z,0.90
2023-01-11T13:06:10.708Z,1.42
2023-01-11T13:08:17.075Z,1.40
2023-01-11T13:10:36.959Z,1.10
2023-01-11T13:12:56.579Z,1.17
2023-01-11T13:15:07.112Z,1.08
2023-01-11T13:17:29.072Z,1.20
2023-01-11T13:19:46.438Z,1.23
2023-01-11T13:21:53.637Z,1.17
2023-01-11T13:24:02.597Z,1.13
2023-01-11T13:26:23.613Z,1.42
2023-01-11T13:28:33.859Z,1.35
2023-01-11T13:30:36.412Z,1.20
2023-01-11T13:32:41.677Z,1.10
2023-01-11T13:34:51.765Z,0.80
2023-01-11T13:37:06.608Z,1.70
2023-01-11T13:39:28.809Z,1.20
2023-01-11T13:41:38.394Z,1.45
2023-01-11T13:43:46.148Z,1.25
2023-01-11T13:45:55.948Z,1.10
2023-01-11T13:48:06.302Z,1.23
2023-01-11T13:50:12.798Z,0.90
2023-01-11T13:52:17.938Z,1.00
2023-01-11T13:54:33.617Z,0.52
2023-01-11T13:56:42.255Z,0.80
2023-01-11T13:58:56.362Z,0.82
2023-01-11T14:01:11.603Z,1.23
2023-01-11T14:03:29.375Z,1.08
2023-01-11T14:05:45.227Z,0.95
2023-01-11T14:08:02.051Z,0.70
2023-01-11T14:10:21.596Z,0.60
2023-01-11T14:12:43.246Z,0.43
2023-01-11T14:15:04.763Z,0.82
2023-01-11T14:17:16.669Z,1.00
2023-01-11T14:19:34.077Z,0.50
2023-01-11T14:21:57.723Z,0.50
2023-01-11T14:24:02.178Z,0.57
2023-01-11T14:26:07.594Z,0.30
2023-01-11T14:28:28.388Z,0.45
2023-01-11T14:30:38.797Z,0.30
2023-01-11T14:32:49.950Z,0.40
2023-01-11T14:35:04.541Z,0.43
2023-01-11T14:37:14.255Z,0.65
2023-01-11T14:39:25.577Z,0.32
2023-01-11T14:41:37.906Z,0.55
2023-01-11T14:43:49.612Z,0.28
2023-01-11T14:46:11.388Z,0.55
2023-01-11T14:48:27.399Z,0.52
2023-01-11T14:50:45.182Z,0.80
2023-01-11T14:52:51.393Z,0.40
2023-01-11T14:54:55.454Z,0.55
2023-01-11T14:56:59.270Z,0.43
2023-01-11T14:59:05.471Z,0.85
2023-01-11T15:01:11.320Z,0.70
2023-01-11T15:03:18.313Z,0.80
2023-01-11T15:05:29.914Z,0.77
2023-01-11T15:07:32.240Z,0.82
2023-01-11T15:09:45.437Z,1.00
2023-01-11T15:11:47.475Z,0.73
2023-01-11T15:13:57.590Z,1.45
2023-01-11T15:16:28.353Z,1.40
2023-01-11T15:18:30.694Z,1.52
2023-01-11T15:20:34.187Z,1.00
2023-01-11T15:22:36.703Z,2.58
2023-01-11T15:24:44.110Z,0.70
2023-01-11T15:26:49.738Z,1.52
2023-01-11T15:28:58.217Z,1.80
2023-01-11T15:31:04.452Z,1.92
2023-01-11T15:33:19.107Z,1.88
2023-01-11T15:35:31.890Z,1.45
2023-01-11T15:37:37.915Z,1.30
2023-01-11T15:39:49.528Z,1.92
2023-01-11T15:42:17.910Z,1.83
2023-01-11T15:44:33.299Z,2.03
2023-01-11T15:46:55.427Z,1.70
2023-01-11T15:49:14.500Z,2.05
2023-01-11T15:51:35.498Z,2.22
2023-01-11T15:55:52.233Z,2.75
2023-01-11T16:02:17.966Z,1.63
2023-01-11T16:04:27.403Z,2.47
2023-01-11T16:06:36.752Z,2.50
2023-01-11T16:08:53.557Z,2.40
2023-01-11T16:11:08.142Z,1.42
2023-01-11T16:13:20.073Z,1.20
2023-01-11T16:15:28.419Z,0.43
2023-01-11T16:17:30.896Z,0.90
2023-01-11T16:19:36.059Z,0.60
2023-01-11T16:21:41.106Z,0.60
2023-01-11T16:23:43.328Z,0.65
2023-01-11T16:25:46.718Z,0.70
2023-01-11T16:27:54.219Z,0.77
2023-01-11T16:29:56.723Z,0.47
2023-01-11T16:32:01.652Z,0.60
2023-01-11T16:34:07.684Z,0.70
2023-01-11T16:36:13.987Z,0.40
2023-01-11T16:38:21.890Z,0.40
2023-01-11T16:40:30.774Z,0.82
2023-01-11T16:42:39.393Z,0.40
2023-01-11T16:44:54.080Z,0.50
2023-01-11T16:47:07.684Z,0.90
2023-01-11T16:49:10.564Z,0.88
2023-01-11T16:51:16.685Z,0.40
2023-01-11T16:53:20.277Z,1.38
2023-01-11T16:55:30.180Z,0.30
2023-01-11T16:57:40.694Z,0.40
2023-01-11T16:59:42.775Z,0.65
2023-01-11T17:01:53.355Z,0.40
2023-01-11T17:03:55.443Z,0.50
2023-01-11T17:05:58.933Z,0.70
2023-01-11T17:08:01.063Z,0.65
2023-01-11T17:10:15.886Z,0.50
2023-01-11T17:12:24.484Z,0.38
2023-01-11T17:14:43.043Z,1.83
2023-01-11T17:16:50.937Z,0.43
2023-01-11T17:18:54.793Z,0.50
2023-01-11T17:20:56.939Z,0.60
2023-01-11T17:22:59.795Z,0.52
2023-01-11T17:25:05.677Z,0.50
2023-01-11T17:27:16.293Z,0.50
2023-01-11T17:29:37.494Z,1.02
2023-01-11T17:31:40.467Z,0.60
2023-01-11T17:33:42.931Z,0.90
2023-01-11T17:35:45.622Z,0.50
2023-01-11T17:37:51.776Z,0.80
2023-01-11T17:39:54.174Z,0.95
2023-01-11T17:42:08.594Z,0.98
2023-01-11T17:44:35.466Z,0.45
2023-01-11T17:46:40.309Z,1.17
2023-01-11T17:48:55.127Z,0.90
2023-01-11T17:50:59.695Z,1.15
2023-01-11T17:53:06.212Z,0.77
2023-01-11T17:55:19.369Z,1.23
2023-01-11T17:57:21.464Z,1.05
2023-01-11T17:59:26.693Z,1.00
2023-01-11T18:01:28.942Z,1.45
2023-01-11T18:03:39.183Z,1.52
2023-01-11T18:05:42.757Z,1.38
2023-01-11T18:07:51.114Z,1.23
2023-01-11T18:10:01.548Z,1.00
2023-01-11T18:12:12.158Z,1.00
2023-01-11T18:14:25.557Z,0.60
2023-01-11T18:16:28.152Z,0.80
2023-01-11T18:18:42.280Z,0.95
2023-01-11T18:20:44.731Z,0.93
2023-01-11T18:23:04.588Z,1.52
2023-01-11T18:25:19.557Z,1.00
2023-01-11T18:27:26.247Z,1.00
2023-01-11T18:29:37.871Z,1.20
2023-01-11T18:31:39.934Z,1.20
2023-01-11T18:33:42.024Z,0.50
2023-01-11T18:35:45.595Z,0.93
2023-01-11T18:37:47.563Z,1.30
2023-01-11T18:39:51.260Z,1.00
2023-01-11T18:42:04.493Z,0.93
2023-01-11T18:44:07.738Z,1.38
2023-01-11T18:46:09.809Z,0.90
2023-01-11T18:48:13.339Z,1.00
2023-01-11T18:50:16.957Z,1.45
2023-01-11T18:52:22.044Z,1.65
2023-01-11T18:54:24.117Z,2.20
2023-01-11T18:56:26.120Z,1.17
2023-01-11T18:58:28.157Z,1.45
2023-01-11T19:00:30.132Z,1.55
2023-01-11T19:02:42.535Z,1.58
2023-01-11T19:06:48.114Z,2.22
2023-01-11T19:08:50.121Z,1.67
2023-01-11T19:10:52.670Z,1.63
2023-01-11T19:12:54.613Z,1.67
2023-01-11T19:14:56.654Z,2.17
2023-01-11T19:16:58.692Z,1.83
2023-01-11T19:19:00.738Z,1.40
2023-01-11T19:21:06.693Z,1.50
2023-01-11T19:23:09.209Z,2.13
2023-01-11T19:25:12.358Z,1.67
2023-01-11T19:27:14.491Z,1.55
2023-01-11T19:29:18.929Z,2.45
2023-01-11T19:31:20.988Z,2.42
2023-01-11T19:33:24.211Z,2.35
2023-01-11T19:35:26.152Z,2.38
2023-01-11T19:37:30.204Z,2.70
2023-01-11T19:39:32.099Z,1.58
2023-01-11T19:41:54.260Z,2.97
2023-01-11T19:43:56.152Z,1.98
2023-01-11T19:45:58.778Z,2.17
2023-01-11T19:48:00.855Z,2.78
2023-01-11T19:50:02.927Z,2.08
2023-01-11T19:52:12.398Z,2.35
2023-01-11T19:54:16.178Z,3.83
2023-01-11T19:56:18.068Z,2.35
2023-01-11T19:58:19.928Z,2.40
2023-01-11T20:00:21.984Z,2.08
2023-01-11T20:02:24.645Z,2.50
2023-01-11T20:04:27.043Z,1.92
2023-01-11T20:06:29.055Z,1.98
2023-01-11T20:08:30.868Z,1.67
2023-01-11T20:10:33.012Z,2.70
2023-01-11T20:12:35.652Z,2.17
2023-01-11T20:14:39.753Z,2.55
2023-01-11T20:16:41.898Z,2.15
2023-01-11T20:18:44.243Z,2.38
2023-01-11T20:20:55.743Z,1.90
2023-01-11T20:22:57.618Z,1.88
2023-01-11T20:25:00.630Z,2.70
2023-01-11T20:27:03.582Z,1.75
2023-01-11T20:29:06.647Z,1.85
2023-01-11T20:31:08.492Z,1.33
2023-01-11T20:33:10.454Z,1.85
2023-01-11T20:35:12.607Z,2.03
2023-01-11T20:37:15.288Z,2.28
2023-01-11T20:39:17.649Z,1.77
2023-01-11T20:41:32.362Z,1.85
2023-01-11T20:43:37.237Z,2.05
2023-01-11T20:45:39.880Z,2.53
2023-01-11T20:47:41.878Z,2.42
2023-01-11T20:49:43.827Z,1.90
2023-01-11T20:51:46.912Z,2.03
2023-01-11T20:53:48.732Z,1.88
2023-01-11T20:55:50.592Z,2.17
2023-01-11T20:57:52.687Z,2.20
2023-01-11T20:59:54.675Z,1.75
2023-01-11T21:01:56.534Z,2.78
2023-01-11T21:04:02.182Z,2.97
2023-01-11T21:06:06.349Z,2.78
2023-01-11T21:08:08.317Z,2.53
2023-01-11T21:10:11.272Z,2.67
2023-01-11T21:12:13.357Z,2.50
2023-01-11T21:14:15.206Z,2.25
2023-01-11T21:16:17.419Z,2.40
2023-01-11T21:18:19.405Z,2.58
2023-01-11T21:20:21.346Z,2.40
2023-01-11T21:22:23.279Z,2.33
2023-01-11T21:24:25.267Z,2.60
2023-01-11T21:26:29.501Z,2.25
2023-01-11T21:30:33.762Z,3.55
2023-01-11T21:32:35.727Z,3.05
2023-01-11T21:34:37.687Z,2.97
2023-01-11T21:36:40.546Z,2.97
2023-01-11T21:38:42.983Z,2.83
2023-01-11T21:40:44.827Z,3.78
2023-01-11T21:42:46.791Z,2.80
2023-01-11T21:44:48.831Z,2.72
2023-01-11T21:46:50.989Z,4.43
2023-01-11T21:48:52.928Z,2.08
2023-01-11T21:50:54.916Z,3.20
2023-01-11T21:52:56.880Z,2.08
2023-01-11T21:54:58.743Z,3.42
2023-01-11T21:57:00.785Z,3.42
2023-01-11T21:59:03.073Z,2.97
2023-01-11T22:01:13.646Z,2.35
2023-01-11T22:03:15.793Z,2.65
2023-01-11T22:05:17.684Z,2.78
2023-01-11T22:07:19.623Z,2.15
2023-01-11T22:09:22.242Z,2.78
2023-01-11T22:11:24.029Z,2.60
2023-01-11T22:13:28.541Z,2.30
2023-01-11T22:15:30.461Z,3.30
2023-01-11T22:17:32.447Z,1.85
2023-01-11T22:19:34.280Z,2.13
2023-01-11T22:21:37.795Z,2.08
2023-01-11T22:23:40.680Z,1.92
2023-01-11T22:25:42.676Z,1.95
2023-01-11T22:27:44.497Z,1.95
2023-01-11T22:29:48.157Z,1.88
2023-01-11T22:31:54.912Z,3.97
2023-01-11T22:33:57.954Z,2.10
2023-01-11T22:35:59.747Z,1.88
2023-01-11T22:38:01.628Z,1.90
2023-01-11T22:40:03.467Z,1.70
2023-01-11T22:42:05.542Z,1.67
2023-01-11T22:44:08.539Z,1.92
2023-01-11T22:46:16.617Z,1.95
2023-01-11T22:48:18.545Z,2.75
2023-01-11T22:50:20.813Z,2.33
2023-01-11T22:52:22.682Z,1.40
2023-01-11T22:54:24.600Z,1.67
2023-01-11T22:56:29.534Z,1.40
2023-01-11T22:58:31.427Z,1.35
2023-01-11T23:00:33.384Z,1.73
2023-01-11T23:02:35.208Z,1.50
2023-01-11T23:04:37.110Z,1.85
2023-01-11T23:06:40.878Z,1.88
2023-01-11T23:08:43.636Z,1.95
2023-01-11T23:10:45.438Z,2.08
2023-01-11T23:12:57.249Z,1.30
2023-01-11T23:14:59.105Z,1.80
2023-01-11T23:17:06.053Z,2.22
2023-01-11T23:19:09.194Z,2.15
2023-01-11T23:21:11.086Z,1.67
2023-01-11T23:23:12.959Z,2.15
2023-01-11T23:25:15.022Z,2.10
2023-01-11T23:27:16.815Z,2.42
2023-01-11T23:29:18.638Z,2.35
2023-01-11T23:31:22.739Z,2.00
2023-01-11T23:33:24.793Z,1.70
2023-01-11T23:35:26.625Z,2.20
2023-01-11T23:37:28.478Z,3.65
2023-01-11T23:39:30.772Z,2.45
2023-01-11T23:41:42.319Z,2.35
2023-01-11T23:43:44.083Z,2.97
2023-01-11T23:45:45.939Z,2.22
2023-01-11T23:47:49.509Z,2.45
2023-01-11T23:49:53.697Z,2.83
2023-01-11T23:51:56.411Z,3.53
2023-01-11T23:53:58.462Z,3.97
2023-01-11T23:56:00.283Z,3.33
2023-01-11T23:58:09.102Z,2.95
